createdAt,value
2019-05-03T00:00:57.100Z,1.73
2019-05-03T00:03:27.561Z,1.70
2019-05-03T00:06:07.026Z,1.83
2019-05-03T00:08:37.374Z,2.07
2019-05-03T00:11:07.741Z,1.67
2019-05-03T00:13:38.025Z,1.70
2019-05-03T00:16:12.075Z,1.30
2019-05-03T00:18:42.249Z,1.50
2019-05-03T00:21:12.873Z,1.50
2019-05-03T00:23:42.997Z,1.57
2019-05-03T00:26:13.277Z,1.70
2019-05-03T00:28:43.419Z,1.53
2019-05-03T00:31:13.762Z,1.70
2019-05-03T00:33:45.613Z,1.53
2019-05-03T00:36:23.273Z,1.67
2019-05-03T00:38:55.308Z,1.40
2019-05-03T00:41:25.692Z,1.87
2019-05-03T00:43:56.160Z,1.50
2019-05-03T00:46:26.361Z,1.90
2019-05-03T00:48:56.581Z,1.77
2019-05-03T00:51:26.787Z,1.50
2019-05-03T00:53:57.185Z,1.87
2019-05-03T00:56:27.457Z,1.70
2019-05-03T00:58:58.981Z,1.53
2019-05-03T01:01:29.270Z,1.73
2019-05-03T01:04:01.656Z,1.50
2019-05-03T01:06:31.929Z,1.60
2019-05-03T01:09:03.945Z,2.13
2019-05-03T01:11:34.305Z,1.40
2019-05-03T01:14:04.948Z,1.50
2019-05-03T01:16:35.157Z,1.80
2019-05-03T01:19:05.385Z,1.37
2019-05-03T01:21:35.870Z,1.50
2019-05-03T01:24:06.302Z,1.73
2019-05-03T01:26:36.569Z,1.70
2019-05-03T01:29:06.776Z,1.47
2019-05-03T01:31:37.195Z,1.97
2019-05-03T01:34:07.911Z,1.80
2019-05-03T01:36:38.269Z,1.43
2019-05-03T01:39:09.025Z,1.57
2019-05-03T01:41:39.302Z,2.13
2019-05-03T01:44:09.584Z,1.77
2019-05-03T01:46:39.961Z,1.60
2019-05-03T01:49:12.418Z,1.90
2019-05-03T01:51:44.313Z,1.50
2019-05-03T01:54:14.521Z,1.77
2019-05-03T01:56:55.951Z,1.83
2019-05-03T01:59:16.936Z,1.87
2019-05-03T02:01:48.806Z,1.90
2019-05-03T02:04:23.433Z,1.77
2019-05-03T02:06:53.705Z,1.60
2019-05-03T02:09:24.052Z,1.67
2019-05-03T02:11:54.354Z,2.07
2019-05-03T02:14:24.565Z,2.10
2019-05-03T02:16:55.010Z,2.00
2019-05-03T02:19:25.567Z,2.00
2019-05-03T02:21:56.043Z,1.90
2019-05-03T02:24:26.322Z,1.83
2019-05-03T02:26:56.533Z,2.43
2019-05-03T02:29:26.830Z,1.83
2019-05-03T02:31:57.044Z,1.63
2019-05-03T02:34:27.529Z,2.00
2019-05-03T02:36:58.138Z,1.93
2019-05-03T02:39:28.529Z,2.00
2019-05-03T02:42:06.752Z,1.77
2019-05-03T02:44:30.644Z,1.80
2019-05-03T02:47:05.738Z,1.87
2019-05-03T02:49:40.495Z,2.07
2019-05-03T02:52:15.019Z,1.87
2019-05-03T02:54:46.508Z,1.63
2019-05-03T02:57:16.365Z,1.90
2019-05-03T02:59:49.783Z,1.80
2019-05-03T03:02:19.910Z,1.50
2019-05-03T03:04:50.320Z,2.17
2019-05-03T03:07:21.582Z,1.73
2019-05-03T03:09:55.624Z,2.07
2019-05-03T03:12:26.958Z,1.87
2019-05-03T03:14:59.194Z,1.97
2019-05-03T03:17:32.733Z,1.93
2019-05-03T03:20:07.360Z,1.80
2019-05-03T03:22:40.641Z,2.10
2019-05-03T03:25:13.006Z,2.20
2019-05-03T03:27:45.439Z,1.60
2019-05-03T03:30:38.497Z,1.90
2019-05-03T03:33:12.157Z,2.00
2019-05-03T03:35:42.574Z,2.10
2019-05-03T03:38:15.344Z,1.87
2019-05-03T03:40:46.102Z,1.80
2019-05-03T03:43:19.285Z,2.27
2019-05-03T03:45:51.158Z,1.93
2019-05-03T03:48:22.281Z,1.97
2019-05-03T03:50:56.133Z,2.07
2019-05-03T03:53:28.036Z,2.27
2019-05-03T03:56:01.317Z,2.47
2019-05-03T03:58:31.906Z,1.70
2019-05-03T04:01:02.618Z,2.10
2019-05-03T04:03:35.987Z,2.10
2019-05-03T04:06:05.866Z,2.03
2019-05-03T04:08:36.766Z,2.57
2019-05-03T04:11:07.426Z,2.43
2019-05-03T04:13:40.934Z,2.00
2019-05-03T04:16:25.915Z,2.10
2019-05-03T04:18:58.022Z,2.10
2019-05-03T04:21:28.448Z,1.93
2019-05-03T04:23:58.818Z,2.33
2019-05-03T04:26:30.244Z,2.13
2019-05-03T04:29:05.081Z,2.00
2019-05-03T04:31:36.526Z,2.13
2019-05-03T04:34:06.176Z,2.03
2019-05-03T04:36:36.453Z,2.00
2019-05-03T04:39:07.101Z,1.87
2019-05-03T04:41:37.587Z,2.30
2019-05-03T04:44:08.080Z,1.93
2019-05-03T04:46:38.497Z,2.00
2019-05-03T04:49:09.017Z,1.83
2019-05-03T04:51:39.214Z,2.17
2019-05-03T04:54:27.725Z,1.77
2019-05-03T04:56:58.010Z,2.63
2019-05-03T04:59:28.409Z,2.20
2019-05-03T05:01:58.994Z,1.83
2019-05-03T05:04:29.271Z,2.50
2019-05-03T05:06:59.543Z,2.30
2019-05-03T05:09:30.097Z,2.30
2019-05-03T05:12:00.306Z,2.10
2019-05-03T05:14:30.529Z,1.87
2019-05-03T05:17:00.803Z,2.07
2019-05-03T05:19:49.355Z,1.60
2019-05-03T05:22:30.138Z,1.80
2019-05-03T05:25:02.074Z,2.03
2019-05-03T05:27:54.651Z,2.10
2019-05-03T05:30:22.044Z,1.80
2019-05-03T05:32:52.317Z,1.87
2019-05-03T05:35:22.474Z,2.07
2019-05-03T05:37:54.614Z,2.10
2019-05-03T05:40:24.733Z,2.00
2019-05-03T05:42:55.205Z,1.73
2019-05-03T05:45:25.421Z,1.60
2019-05-03T05:48:06.016Z,2.10
2019-05-03T05:50:37.925Z,2.00
2019-05-03T05:53:08.461Z,2.30
2019-05-03T05:55:46.185Z,2.00
2019-05-03T05:58:18.257Z,1.83
2019-05-03T06:00:55.036Z,1.70
2019-05-03T06:03:25.244Z,1.80
2019-05-03T06:05:57.401Z,1.70
2019-05-03T06:08:29.288Z,1.80
2019-05-03T06:11:17.491Z,1.73
2019-05-03T06:14:05.364Z,2.00
2019-05-03T06:16:52.371Z,1.77
2019-05-03T06:19:25.268Z,1.80
2019-05-03T06:22:15.853Z,1.60
2019-05-03T06:24:47.811Z,1.83
2019-05-03T06:27:25.465Z,1.70
2019-05-03T06:29:57.400Z,1.70
2019-05-03T06:32:29.245Z,1.40
2019-05-03T06:34:59.597Z,2.03
2019-05-03T06:37:35.427Z,2.00
2019-05-03T06:40:06.941Z,1.90
2019-05-03T06:42:37.292Z,1.80
2019-05-03T06:45:11.741Z,2.00
2019-05-03T06:47:46.027Z,2.00
2019-05-03T06:50:14.547Z,1.70
2019-05-03T06:52:45.050Z,1.97
2019-05-03T06:55:15.521Z,1.73
2019-05-03T06:57:49.638Z,1.93
2019-05-03T07:00:32.033Z,1.80
2019-05-03T07:03:04.895Z,1.57
2019-05-03T07:05:36.865Z,1.83
2019-05-03T07:08:11.869Z,1.80
2019-05-03T07:10:44.504Z,1.50
2019-05-03T07:13:15.285Z,1.90
2019-05-03T07:15:45.645Z,1.70
2019-05-03T07:18:15.926Z,1.60
2019-05-03T07:20:47.812Z,1.60
2019-05-03T07:23:18.014Z,1.67
2019-05-03T07:25:48.229Z,1.90
2019-05-03T07:28:18.364Z,1.87
2019-05-03T07:30:49.051Z,1.50
2019-05-03T07:33:21.171Z,1.57
2019-05-03T07:35:51.441Z,1.50
2019-05-03T07:38:21.584Z,1.50
2019-05-03T07:40:51.989Z,1.37
2019-05-03T07:43:24.382Z,1.73
2019-05-03T07:45:55.227Z,1.40
2019-05-03T07:48:25.969Z,1.73
2019-05-03T07:50:56.442Z,1.70
2019-05-03T07:53:26.737Z,1.40
2019-05-03T07:56:01.653Z,1.40
2019-05-03T07:58:34.582Z,1.57
2019-05-03T08:01:10.184Z,1.47
2019-05-03T08:03:40.745Z,1.23
2019-05-03T08:06:10.941Z,1.63
2019-05-03T08:08:41.431Z,1.60
2019-05-03T08:11:11.741Z,1.40
2019-05-03T08:13:41.957Z,1.60
2019-05-03T08:16:12.597Z,1.60
2019-05-03T08:18:43.073Z,1.40
2019-05-03T08:21:14.906Z,1.17
2019-05-03T08:23:45.468Z,1.13
2019-05-03T08:26:15.840Z,1.30
2019-05-03T08:28:46.410Z,1.27
2019-05-03T08:31:18.368Z,1.30
2019-05-03T08:33:56.393Z,1.40
2019-05-03T08:36:26.749Z,1.27
2019-05-03T08:38:56.976Z,1.00
2019-05-03T08:41:29.165Z,1.33
2019-05-03T08:43:59.521Z,1.27
2019-05-03T08:46:29.821Z,1.13
2019-05-03T08:49:00.106Z,1.37
2019-05-03T08:51:30.369Z,1.20
2019-05-03T08:54:00.609Z,1.27
2019-05-03T08:56:30.846Z,1.13
2019-05-03T08:59:01.425Z,1.53
2019-05-03T09:01:31.937Z,1.43
2019-05-03T09:04:02.284Z,1.03
2019-05-03T09:06:32.633Z,1.17
2019-05-03T09:09:04.816Z,1.30
2019-05-03T09:11:36.889Z,1.33
2019-05-03T09:14:08.545Z,1.30
2019-05-03T09:16:38.966Z,1.40
2019-05-03T09:19:09.229Z,1.37
2019-05-03T09:21:39.565Z,1.57
2019-05-03T09:24:09.971Z,1.23
2019-05-03T09:26:40.629Z,1.03
2019-05-03T09:29:10.840Z,1.30
2019-05-03T09:31:41.053Z,1.30
2019-05-03T09:34:11.405Z,1.33
2019-05-03T09:36:41.764Z,1.20
2019-05-03T09:39:11.961Z,1.30
2019-05-03T09:41:42.456Z,1.17
2019-05-03T09:44:14.977Z,1.30
2019-05-03T09:46:44.901Z,1.50
2019-05-03T09:49:16.571Z,1.40
2019-05-03T09:51:47.344Z,1.10
2019-05-03T09:54:31.812Z,1.30
2019-05-03T09:57:02.215Z,1.20
2019-05-03T09:59:32.710Z,1.40
2019-05-03T10:02:04.867Z,1.40
2019-05-03T10:04:36.594Z,1.37
2019-05-03T10:07:07.518Z,1.40
2019-05-03T10:09:37.786Z,1.23
2019-05-03T10:12:10.049Z,1.50
2019-05-03T10:14:40.693Z,1.40
2019-05-03T10:17:21.837Z,1.03
2019-05-03T10:20:01.153Z,1.23
2019-05-03T10:22:31.472Z,1.40
2019-05-03T10:25:02.113Z,1.10
2019-05-03T10:27:46.162Z,1.40
2019-05-03T10:30:21.805Z,1.50
2019-05-03T10:33:10.383Z,1.40
2019-05-03T10:35:40.893Z,1.20
2019-05-03T10:38:11.285Z,1.03
2019-05-03T10:40:41.495Z,1.27
2019-05-03T10:43:11.778Z,1.20
2019-05-03T10:45:42.177Z,1.57
2019-05-03T10:48:12.663Z,1.57
2019-05-03T10:50:43.237Z,1.30
2019-05-03T10:53:18.085Z,1.10
2019-05-03T10:56:06.412Z,1.40
2019-05-03T10:58:37.254Z,1.17
2019-05-03T11:01:07.697Z,1.20
2019-05-03T11:03:37.869Z,1.10
2019-05-03T11:06:08.370Z,1.10
2019-05-03T11:08:38.850Z,0.80
2019-05-03T11:11:09.281Z,0.97
2019-05-03T11:13:39.557Z,1.20
2019-05-03T11:16:09.871Z,0.90
2019-05-03T11:18:40.197Z,0.93
2019-05-03T11:21:10.419Z,0.87
2019-05-03T11:23:40.701Z,1.07
2019-05-03T11:26:11.057Z,1.00
2019-05-03T11:28:41.340Z,0.90
2019-05-03T11:31:29.764Z,1.30
2019-05-03T11:34:01.626Z,1.10
2019-05-03T11:36:45.541Z,1.37
2019-05-03T11:39:15.902Z,1.17
2019-05-03T11:41:50.550Z,1.20
2019-05-03T11:44:39.017Z,1.07
2019-05-03T11:47:09.791Z,0.83
2019-05-03T11:49:40.640Z,0.93
2019-05-03T11:52:11.051Z,1.30
2019-05-03T11:54:41.528Z,1.10
2019-05-03T11:57:15.698Z,1.10
2019-05-03T11:59:45.864Z,1.00
2019-05-03T12:02:24.792Z,1.00
2019-05-03T12:04:55.377Z,0.80
2019-05-03T12:07:39.048Z,1.00
2019-05-03T12:10:13.422Z,0.77
2019-05-03T12:12:38.270Z,0.77
2019-05-03T12:15:08.789Z,1.10
2019-05-03T12:17:51.743Z,0.83
2019-05-03T12:20:18.054Z,1.20
2019-05-03T12:22:48.763Z,0.90
2019-05-03T12:25:20.421Z,1.10
2019-05-03T12:27:51.180Z,0.90
2019-05-03T12:30:24.921Z,0.90
2019-05-03T12:32:54.692Z,1.03
2019-05-03T12:35:25.130Z,0.90
2019-05-03T12:37:57.146Z,0.80
2019-05-03T12:40:27.362Z,1.20
2019-05-03T12:42:57.729Z,0.97
2019-05-03T12:45:28.280Z,1.00
2019-05-03T12:47:58.773Z,1.00
2019-05-03T12:50:29.060Z,1.00
2019-05-03T12:52:59.273Z,1.20
2019-05-03T12:55:29.469Z,0.93
2019-05-03T12:57:59.954Z,1.27
2019-05-03T13:00:37.473Z,1.33
2019-05-03T13:03:12.321Z,1.17
2019-05-03T13:05:44.798Z,1.20
2019-05-03T13:08:32.435Z,1.00
2019-05-03T13:11:05.055Z,0.90
2019-05-03T13:13:35.989Z,0.77
2019-05-03T13:16:07.266Z,1.00
2019-05-03T13:18:37.556Z,1.10
2019-05-03T13:21:07.920Z,0.97
2019-05-03T13:23:38.207Z,0.90
2019-05-03T13:26:08.446Z,0.80
2019-05-03T13:28:38.818Z,1.10
2019-05-03T13:31:09.097Z,0.90
2019-05-03T13:33:39.513Z,1.00
2019-05-03T13:36:09.905Z,1.23
2019-05-03T13:38:40.118Z,1.00
2019-05-03T13:41:10.410Z,1.00
2019-05-03T13:43:40.877Z,0.90
2019-05-03T13:46:11.289Z,1.20
2019-05-03T13:48:45.921Z,0.90
2019-05-03T13:51:14.726Z,0.97
2019-05-03T13:53:45.097Z,0.90
2019-05-03T13:56:15.437Z,0.80
2019-05-03T13:58:45.729Z,0.87
2019-05-03T14:01:15.936Z,0.90
2019-05-03T14:03:46.276Z,0.90
2019-05-03T14:06:16.511Z,0.90
2019-05-03T14:08:46.789Z,0.90
2019-05-03T14:11:17.021Z,1.00
2019-05-03T14:13:47.294Z,0.80
2019-05-03T14:16:17.589Z,1.00
2019-05-03T14:18:49.442Z,0.80
2019-05-03T14:21:27.425Z,0.80
2019-05-03T14:24:10.482Z,1.00
2019-05-03T14:26:42.112Z,0.90
2019-05-03T14:29:14.634Z,1.00
2019-05-03T14:31:45.330Z,1.00
2019-05-03T14:34:17.529Z,0.80
2019-05-03T14:36:47.657Z,0.70
2019-05-03T14:39:17.941Z,0.87
2019-05-03T14:41:48.145Z,1.03
2019-05-03T14:44:18.709Z,1.23
2019-05-03T14:46:49.176Z,1.30
2019-05-03T14:49:19.661Z,1.27
2019-05-03T14:51:49.861Z,1.70
2019-05-03T14:54:21.990Z,1.30
2019-05-03T14:57:12.509Z,1.63
2019-05-03T15:00:00.781Z,1.60
2019-05-03T15:02:43.454Z,1.70
2019-05-03T15:05:07.993Z,1.00
2019-05-03T15:07:38.505Z,1.50
2019-05-03T15:10:08.934Z,1.80
2019-05-03T15:12:39.256Z,1.90
2019-05-03T15:15:10.089Z,1.63
2019-05-03T15:17:40.581Z,1.70
2019-05-03T15:20:11.217Z,1.60
2019-05-03T15:22:41.509Z,1.73
2019-05-03T15:25:12.023Z,1.70
2019-05-03T15:27:42.308Z,1.80
2019-05-03T15:30:15.606Z,1.70
2019-05-03T15:32:57.103Z,1.47
2019-05-03T15:35:18.543Z,1.90
2019-05-03T15:37:48.885Z,1.83
2019-05-03T15:40:19.333Z,1.70
2019-05-03T15:42:51.185Z,2.03
2019-05-03T15:45:26.161Z,2.37
2019-05-03T15:48:07.096Z,1.77
2019-05-03T15:50:37.362Z,1.40
2019-05-03T15:53:07.777Z,1.70
2019-05-03T15:55:37.977Z,1.60
2019-05-03T15:58:08.289Z,1.47
2019-05-03T16:00:38.677Z,1.50
2019-05-03T16:03:11.329Z,1.53
2019-05-03T16:05:40.980Z,2.20
2019-05-03T16:08:11.407Z,1.60
2019-05-03T16:10:41.631Z,1.87
2019-05-03T16:13:12.132Z,1.83
2019-05-03T16:15:44.412Z,1.40
2019-05-03T16:18:14.897Z,1.60
2019-05-03T16:20:45.474Z,1.67
2019-05-03T16:23:15.676Z,1.73
2019-05-03T16:25:46.028Z,2.23
2019-05-03T16:28:20.805Z,1.80
2019-05-03T16:30:58.368Z,1.70
2019-05-03T16:33:28.593Z,1.80
2019-05-03T16:35:58.813Z,1.70
2019-05-03T16:38:29.093Z,1.47
2019-05-03T16:40:59.637Z,1.20
2019-05-03T16:43:29.862Z,1.30
2019-05-03T16:46:00.333Z,1.60
2019-05-03T16:48:30.550Z,1.20
2019-05-03T16:51:01.028Z,1.73
2019-05-03T16:53:31.529Z,1.60
2019-05-03T16:56:03.431Z,1.20
2019-05-03T16:58:35.422Z,1.67
2019-05-03T17:01:06.029Z,1.40
2019-05-03T17:03:41.476Z,1.70
2019-05-03T17:06:14.844Z,1.10
2019-05-03T17:08:56.846Z,1.40
2019-05-03T17:11:27.817Z,1.40
2019-05-03T17:13:58.042Z,1.70
2019-05-03T17:16:28.620Z,1.30
2019-05-03T17:18:59.144Z,1.40
2019-05-03T17:21:29.489Z,1.33
2019-05-03T17:24:00.009Z,1.40
2019-05-03T17:26:30.397Z,1.30
2019-05-03T17:29:00.885Z,1.40
2019-05-03T17:31:31.162Z,1.60
2019-05-03T17:34:01.512Z,1.47
2019-05-03T17:36:31.805Z,1.30
2019-05-03T17:39:04.418Z,1.07
2019-05-03T17:41:36.371Z,1.20
2019-05-03T17:44:10.909Z,1.10
2019-05-03T17:46:41.685Z,1.40
2019-05-03T17:49:12.103Z,1.50
2019-05-03T17:51:45.591Z,1.40
2019-05-03T17:54:17.595Z,1.30
2019-05-03T17:57:04.662Z,1.50
2019-05-03T17:59:36.785Z,1.43
2019-05-03T18:02:25.182Z,1.40
2019-05-03T18:05:14.639Z,1.30
2019-05-03T18:07:46.745Z,1.47
2019-05-03T18:10:18.989Z,1.60
2019-05-03T18:12:49.371Z,1.30
2019-05-03T18:15:19.937Z,1.73
2019-05-03T18:17:50.341Z,1.93
2019-05-03T18:20:20.829Z,1.60
2019-05-03T18:22:51.024Z,2.47
2019-05-03T18:25:21.409Z,1.83
2019-05-03T18:27:51.705Z,1.70
2019-05-03T18:30:21.988Z,1.80
2019-05-03T18:32:54.292Z,2.80
2019-05-03T18:35:25.645Z,2.57
2019-05-03T18:37:59.185Z,2.27
2019-05-03T18:40:31.071Z,2.03
2019-05-03T18:43:04.558Z,1.60
2019-05-03T18:45:39.297Z,1.63
2019-05-03T18:48:09.513Z,2.53
2019-05-03T18:50:40.089Z,2.70
2019-05-03T18:53:10.353Z,2.37
2019-05-03T18:55:40.893Z,2.10
2019-05-03T18:58:11.168Z,1.60
2019-05-03T19:00:41.662Z,1.70
2019-05-03T19:03:11.957Z,2.10
2019-05-03T19:05:45.331Z,2.10
2019-05-03T19:08:20.436Z,1.90
2019-05-03T19:11:04.615Z,2.03
2019-05-03T19:13:36.597Z,2.73
2019-05-03T19:16:08.889Z,2.63
2019-05-03T19:18:40.289Z,2.80
2019-05-03T19:21:10.493Z,3.40
2019-05-03T19:23:40.773Z,2.47
2019-05-03T19:26:11.076Z,2.67
2019-05-03T19:28:41.589Z,2.90
2019-05-03T19:31:12.268Z,1.93
2019-05-03T19:33:42.733Z,2.40
2019-05-03T19:36:13.033Z,2.40
2019-05-03T19:38:43.284Z,1.90
2019-05-03T19:41:14.560Z,3.30
2019-05-03T19:43:46.061Z,2.60
2019-05-03T19:46:16.691Z,1.70
2019-05-03T19:48:47.321Z,1.73
2019-05-03T19:51:17.542Z,1.90
2019-05-03T19:53:49.520Z,2.00
2019-05-03T19:56:19.890Z,1.43
2019-05-03T19:58:51.579Z,1.53
2019-05-03T20:01:26.801Z,1.33
2019-05-03T20:04:15.361Z,1.77
2019-05-03T20:06:53.208Z,1.73
2019-05-03T20:09:25.110Z,2.10
2019-05-03T20:11:55.578Z,1.70
2019-05-03T20:14:26.049Z,1.80
2019-05-03T20:16:56.257Z,1.73
2019-05-03T20:19:26.538Z,1.67
2019-05-03T20:21:56.857Z,2.40
2019-05-03T20:24:27.185Z,3.87
2019-05-03T20:26:57.729Z,1.57
2019-05-03T20:29:28.314Z,2.90
2019-05-03T20:31:58.887Z,2.53
2019-05-03T20:34:29.226Z,1.50
2019-05-03T20:36:59.525Z,1.93
2019-05-03T20:39:29.890Z,1.70
2019-05-03T20:42:00.350Z,1.80
2019-05-03T20:44:38.123Z,1.70
2019-05-03T20:47:10.129Z,1.77
2019-05-03T20:49:40.337Z,1.67
2019-05-03T20:52:10.713Z,1.63
2019-05-03T20:54:40.857Z,1.57
2019-05-03T20:57:11.061Z,1.93
2019-05-03T20:59:45.160Z,1.70
2019-05-03T21:02:15.220Z,1.50
2019-05-03T21:04:45.169Z,1.50
2019-05-03T21:07:15.369Z,1.70
2019-05-03T21:09:45.687Z,1.80
2019-05-03T21:12:16.045Z,1.57
2019-05-03T21:14:46.176Z,1.70
2019-05-03T21:17:34.749Z,1.63
2019-05-03T21:20:14.703Z,2.00
2019-05-03T21:22:45.953Z,2.60
2019-05-03T21:25:20.976Z,3.20
2019-05-03T21:27:51.209Z,2.30
2019-05-03T21:30:21.753Z,2.17
2019-05-03T21:32:51.957Z,2.23
2019-05-03T21:35:22.159Z,3.20
2019-05-03T21:37:54.354Z,1.97
2019-05-03T21:40:25.049Z,2.10
2019-05-03T21:42:55.390Z,2.47
2019-05-03T21:45:30.045Z,2.67
2019-05-03T21:48:10.818Z,3.60
2019-05-03T21:50:41.410Z,3.77
2019-05-03T21:53:11.647Z,2.60
2019-05-03T21:55:42.030Z,2.10
2019-05-03T21:58:16.183Z,1.67
2019-05-03T22:00:46.184Z,1.60
2019-05-03T22:03:16.673Z,1.50
2019-05-03T22:05:55.042Z,1.70
2019-05-03T22:08:18.922Z,1.63
2019-05-03T22:10:49.121Z,1.20
2019-05-03T22:13:19.545Z,1.40
2019-05-03T22:15:54.541Z,1.50
2019-05-03T22:18:26.589Z,1.70
2019-05-03T22:21:01.041Z,1.40
2019-05-03T22:23:49.192Z,1.30
2019-05-03T22:26:21.049Z,1.57
2019-05-03T22:28:51.257Z,1.47
2019-05-03T22:31:21.620Z,1.67
2019-05-03T22:33:52.101Z,1.17
2019-05-03T22:36:24.275Z,1.23
2019-05-03T22:38:54.564Z,1.50
2019-05-03T22:41:25.306Z,1.57
2019-05-03T22:43:55.537Z,1.50
2019-05-03T22:46:25.769Z,1.27
2019-05-03T22:48:56.249Z,1.57
2019-05-03T22:51:26.648Z,1.50
2019-05-03T22:53:56.795Z,1.57
2019-05-03T22:56:27.138Z,1.40
2019-05-03T22:58:57.372Z,1.50
2019-05-03T23:01:27.846Z,1.13
2019-05-03T23:03:58.489Z,1.23
2019-05-03T23:06:28.704Z,1.70
2019-05-03T23:08:58.923Z,1.50
2019-05-03T23:11:29.209Z,1.40
2019-05-03T23:14:04.589Z,1.50
2019-05-03T23:16:35.632Z,1.30
2019-05-03T23:19:06.225Z,1.37
2019-05-03T23:21:41.197Z,1.27
2019-05-03T23:24:11.465Z,1.40
2019-05-03T23:26:41.624Z,1.40
2019-05-03T23:29:11.882Z,1.53
2019-05-03T23:31:42.161Z,1.30
2019-05-03T23:34:12.451Z,1.73
2019-05-03T23:36:43.025Z,1.77
2019-05-03T23:39:14.488Z,1.70
2019-05-03T23:41:44.820Z,1.60
2019-05-03T23:44:15.220Z,1.83
2019-05-03T23:46:54.551Z,1.80
2019-05-03T23:49:25.091Z,1.50
2019-05-03T23:51:57.164Z,1.23
2019-05-03T23:54:27.537Z,1.40
2019-05-03T23:56:57.861Z,1.30
2019-05-03T23:59:28.205Z,1.50
